Terminal Aerodrome Forecast
Issued by NWS Pueblo, CO

Home | Current Version | Previous Version | Text Only | Print | Product List | Glossary On
Versions: 1 2 3 4 5 6 7 8 9 10 11 12 13 14 15 16 17 18 19 20 21 22 23 24 25 26 27 28 29 30 31 32 33 34 35 36 37 38 39 40 41 42
000
FTUS45 KPUB 142331
TAFPUB
TAF
KPUB 142331Z 1500/1524 13008KT P6SM SCT130 SCT200
     FM150300 29007KT P6SM SCT110
     FM151000 36018G28KT P6SM FEW060 SCT100
     FM151400 02010KT P6SM BKN040
     FM151800 09012KT P6SM BKN030
     FM152100 11012KT P6SM SCT040 SCT120=

USA.gov is the U.S. government's official web portal to all federal, state and local government web resources and services.